sensor_id;sensor_type;location;lat;lon;timestamp;P1;durP1;ratioP1;P2;durP2;ratioP2
57249;SDS011;43102;52.014;-0.680;2023-01-09T00:00:07;9.40;;;3.70;;
57249;SDS011;43102;52.014;-0.680;2023-01-09T00:01:01;9.40;;;3.70;;
57249;SDS011;43102;52.014;-0.680;2023-01-09T00:02:00;9.40;;;3.70;;
57249;SDS011;43102;52.014;-0.680;2023-01-09T00:03:00;6.80;;;3.00;;
57249;SDS011;43102;52.014;-0.680;2023-01-09T00:04:01;6.80;;;3.00;;
57249;SDS011;43102;52.014;-0.680;2023-01-09T00:05:00;6.80;;;3.00;;
57249;SDS011;43102;52.014;-0.680;2023-01-09T00:06:00;6.80;;;3.00;;
57249;SDS011;43102;52.014;-0.680;2023-01-09T00:07:00;6.80;;;3.00;;
57249;SDS011;43102;52.014;-0.680;2023-01-09T00:08:00;6.80;;;3.00;;
57249;SDS011;43102;52.014;-0.680;2023-01-09T00:09:00;6.80;;;3.00;;
57249;SDS011;43102;52.014;-0.680;2023-01-09T00:10:00;6.80;;;3.00;;
57249;SDS011;43102;52.014;-0.680;2023-01-09T00:11:00;6.80;;;3.00;;
57249;SDS011;43102;52.014;-0.680;2023-01-09T00:12:02;6.80;;;3.00;;
57249;SDS011;43102;52.014;-0.680;2023-01-09T00:13:00;6.80;;;3.00;;
57249;SDS011;43102;52.014;-0.680;2023-01-09T00:14:01;6.80;;;3.00;;
57249;SDS011;43102;52.014;-0.680;2023-01-09T00:15:00;6.80;;;3.00;;
57249;SDS011;43102;52.014;-0.680;2023-01-09T00:16:00;6.80;;;3.00;;
57249;SDS011;43102;52.014;-0.680;2023-01-09T00:17:00;6.80;;;3.00;;
57249;SDS011;43102;52.014;-0.680;2023-01-09T00:18:00;6.80;;;3.00;;
57249;SDS011;43102;52.014;-0.680;2023-01-09T00:19:00;6.80;;;3.00;;
57249;SDS011;43102;52.014;-0.680;2023-01-09T00:20:00;6.80;;;3.00;;
57249;SDS011;43102;52.014;-0.680;2023-01-09T00:21:03;6.80;;;3.00;;
57249;SDS011;43102;52.014;-0.680;2023-01-09T00:22:00;6.80;;;3.00;;
57249;SDS011;43102;52.014;-0.680;2023-01-09T00:23:00;6.80;;;3.00;;
57249;SDS011;43102;52.014;-0.680;2023-01-09T00:24:00;6.80;;;3.00;;
57249;SDS011;43102;52.014;-0.680;2023-01-09T00:25:00;6.80;;;3.00;;
57249;SDS011;43102;52.014;-0.680;2023-01-09T00:26:09;6.80;;;3.00;;
57249;SDS011;43102;52.014;-0.680;2023-01-09T00:27:01;6.80;;;3.00;;
57249;SDS011;43102;52.014;-0.680;2023-01-09T00:28:00;6.80;;;3.00;;
57249;SDS011;43102;52.014;-0.680;2023-01-09T00:29:00;6.80;;;3.00;;
57249;SDS011;43102;52.014;-0.680;2023-01-09T00:30:01;6.80;;;3.00;;
57249;SDS011;43102;52.014;-0.680;2023-01-09T00:31:02;6.80;;;3.00;;
57249;SDS011;43102;52.014;-0.680;2023-01-09T00:32:00;6.80;;;3.00;;
57249;SDS011;43102;52.014;-0.680;2023-01-09T00:33:00;7.80;;;3.30;;
57249;SDS011;43102;52.014;-0.680;2023-01-09T00:34:04;7.80;;;3.30;;
57249;SDS011;43102;52.014;-0.680;2023-01-09T00:35:01;7.80;;;3.30;;
57249;SDS011;43102;52.014;-0.680;2023-01-09T00:36:01;7.80;;;3.30;;
57249;SDS011;43102;52.014;-0.680;2023-01-09T00:37:00;7.80;;;3.30;;
57249;SDS011;43102;52.014;-0.680;2023-01-09T00:38:02;7.80;;;3.30;;
57249;SDS011;43102;52.014;-0.680;2023-01-09T00:39:00;7.80;;;3.30;;
57249;SDS011;43102;52.014;-0.680;2023-01-09T00:40:00;7.80;;;3.30;;
57249;SDS011;43102;52.014;-0.680;2023-01-09T00:41:02;7.80;;;3.30;;
57249;SDS011;43102;52.014;-0.680;2023-01-09T00:42:00;7.80;;;3.30;;
57249;SDS011;43102;52.014;-0.680;2023-01-09T00:43:00;7.80;;;3.30;;
57249;SDS011;43102;52.014;-0.680;2023-01-09T00:44:07;7.80;;;3.30;;
57249;SDS011;43102;52.014;-0.680;2023-01-09T00:45:03;7.80;;;3.30;;
57249;SDS011;43102;52.014;-0.680;2023-01-09T00:46:03;7.80;;;3.30;;
57249;SDS011;43102;52.014;-0.680;2023-01-09T00:47:05;7.80;;;3.30;;
57249;SDS011;43102;52.014;-0.680;2023-01-09T00:48:05;7.80;;;3.30;;
57249;SDS011;43102;52.014;-0.680;2023-01-09T00:49:02;7.80;;;3.30;;
57249;SDS011;43102;52.014;-0.680;2023-01-09T00:50:05;7.80;;;3.30;;
57249;SDS011;43102;52.014;-0.680;2023-01-09T00:51:00;7.80;;;3.30;;
57249;SDS011;43102;52.014;-0.680;2023-01-09T00:52:01;7.80;;;3.30;;
57249;SDS011;43102;52.014;-0.680;2023-01-09T00:53:07;7.80;;;3.30;;
57249;SDS011;43102;52.014;-0.680;2023-01-09T00:54:02;7.80;;;3.30;;
57249;SDS011;43102;52.014;-0.680;2023-01-09T00:55:01;7.80;;;3.30;;
57249;SDS011;43102;52.014;-0.680;2023-01-09T00:56:04;7.80;;;3.30;;
57249;SDS011;43102;52.014;-0.680;2023-01-09T00:57:00;7.80;;;3.30;;
57249;SDS011;43102;52.014;-0.680;2023-01-09T00:58:01;7.80;;;3.30;;
57249;SDS011;43102;52.014;-0.680;2023-01-09T00:59:01;7.80;;;3.30;;
57249;SDS011;43102;52.014;-0.680;2023-01-09T01:00:01;7.80;;;3.30;;
57249;SDS011;43102;52.014;-0.680;2023-01-09T01:01:01;7.80;;;3.30;;
57249;SDS011;43102;52.014;-0.680;2023-01-09T01:02:01;7.80;;;3.30;;
57249;SDS011;43102;52.014;-0.680;2023-01-09T01:03:01;10.60;;;3.60;;
57249;SDS011;43102;52.014;-0.680;2023-01-09T01:04:10;10.60;;;3.60;;
57249;SDS011;43102;52.014;-0.680;2023-01-09T01:05:10;10.60;;;3.60;;
57249;SDS011;43102;52.014;-0.680;2023-01-09T01:06:11;10.60;;;3.60;;
57249;SDS011;43102;52.014;-0.680;2023-01-09T01:07:10;10.60;;;3.60;;
57249;SDS011;43102;52.014;-0.680;2023-01-09T01:08:00;10.60;;;3.60;;
57249;SDS011;43102;52.014;-0.680;2023-01-09T01:09:00;10.60;;;3.60;;
57249;SDS011;43102;52.014;-0.680;2023-01-09T01:10:00;10.60;;;3.60;;
57249;SDS011;43102;52.014;-0.680;2023-01-09T01:11:05;10.60;;;3.60;;
57249;SDS011;43102;52.014;-0.680;2023-01-09T01:12:05;10.60;;;3.60;;
57249;SDS011;43102;52.014;-0.680;2023-01-09T01:13:00;10.60;;;3.60;;
57249;SDS011;43102;52.014;-0.680;2023-01-09T01:14:00;10.60;;;3.60;;
57249;SDS011;43102;52.014;-0.680;2023-01-09T01:15:01;10.60;;;3.60;;
57249;SDS011;43102;52.014;-0.680;2023-01-09T01:16:03;10.60;;;3.60;;
57249;SDS011;43102;52.014;-0.680;2023-01-09T01:17:01;10.60;;;3.60;;
57249;SDS011;43102;52.014;-0.680;2023-01-09T01:18:00;10.60;;;3.60;;
57249;SDS011;43102;52.014;-0.680;2023-01-09T01:19:00;10.60;;;3.60;;
57249;SDS011;43102;52.014;-0.680;2023-01-09T01:20:01;10.60;;;3.60;;
57249;SDS011;43102;52.014;-0.680;2023-01-09T01:21:05;10.60;;;3.60;;
57249;SDS011;43102;52.014;-0.680;2023-01-09T01:22:01;10.60;;;3.60;;
57249;SDS011;43102;52.014;-0.680;2023-01-09T01:23:00;10.60;;;3.60;;
57249;SDS011;43102;52.014;-0.680;2023-01-09T01:24:00;10.60;;;3.60;;
57249;SDS011;43102;52.014;-0.680;2023-01-09T01:25:01;10.60;;;3.60;;
57249;SDS011;43102;52.014;-0.680;2023-01-09T01:26:06;10.60;;;3.60;;
57249;SDS011;43102;52.014;-0.680;2023-01-09T01:27:00;10.60;;;3.60;;
57249;SDS011;43102;52.014;-0.680;2023-01-09T01:28:00;10.60;;;3.60;;
57249;SDS011;43102;52.014;-0.680;2023-01-09T01:29:00;10.60;;;3.60;;
57249;SDS011;43102;52.014;-0.680;2023-01-09T01:30:00;10.60;;;3.60;;
57249;SDS011;43102;52.014;-0.680;2023-01-09T01:31:01;10.60;;;3.60;;
57249;SDS011;43102;52.014;-0.680;2023-01-09T01:32:00;10.60;;;3.60;;
57249;SDS011;43102;52.014;-0.680;2023-01-09T01:33:00;11.90;;;4.20;;
57249;SDS011;43102;52.014;-0.680;2023-01-09T01:34:00;11.90;;;4.20;;
57249;SDS011;43102;52.014;-0.680;2023-01-09T01:35:00;11.90;;;4.20;;
57249;SDS011;43102;52.014;-0.680;2023-01-09T01:36:05;11.90;;;4.20;;
57249;SDS011;43102;52.014;-0.680;2023-01-09T01:37:00;11.90;;;4.20;;
57249;SDS011;43102;52.014;-0.680;2023-01-09T01:38:01;11.90;;;4.20;;
57249;SDS011;43102;52.014;-0.680;2023-01-09T01:39:00;11.90;;;4.20;;
57249;SDS011;43102;52.014;-0.680;2023-01-09T01:40:00;11.90;;;4.20;;
57249;SDS011;43102;52.014;-0.680;2023-01-09T01:41:02;11.90;;;4.20;;
57249;SDS011;43102;52.014;-0.680;2023-01-09T01:42:03;11.90;;;4.20;;
57249;SDS011;43102;52.014;-0.680;2023-01-09T01:43:00;11.90;;;4.20;;
57249;SDS011;43102;52.014;-0.680;2023-01-09T01:44:04;11.90;;;4.20;;
57249;SDS011;43102;52.014;-0.680;2023-01-09T01:45:10;11.90;;;4.20;;
57249;SDS011;43102;52.014;-0.680;2023-01-09T01:46:00;11.90;;;4.20;;
57249;SDS011;43102;52.014;-0.680;2023-01-09T01:47:00;11.90;;;4.20;;
57249;SDS011;43102;52.014;-0.680;2023-01-09T01:49:13;11.90;;;4.20;;
57249;SDS011;43102;52.014;-0.680;2023-01-09T01:51:04;11.90;;;4.20;;
57249;SDS011;43102;52.014;-0.680;2023-01-09T01:52:01;11.90;;;4.20;;
57249;SDS011;43102;52.014;-0.680;2023-01-09T01:54:04;11.90;;;4.20;;
57249;SDS011;43102;52.014;-0.680;2023-01-09T01:55:01;11.90;;;4.20;;
57249;SDS011;43102;52.014;-0.680;2023-01-09T01:56:08;11.90;;;4.20;;
57249;SDS011;43102;52.014;-0.680;2023-01-09T01:57:02;11.90;;;4.20;;
57249;SDS011;43102;52.014;-0.680;2023-01-09T01:58:03;11.90;;;4.20;;
57249;SDS011;43102;52.014;-0.680;2023-01-09T01:59:06;11.90;;;4.20;;
57249;SDS011;43102;52.014;-0.680;2023-01-09T02:00:03;11.90;;;4.20;;
57249;SDS011;43102;52.014;-0.680;2023-01-09T02:01:01;11.90;;;4.20;;
57249;SDS011;43102;52.014;-0.680;2023-01-09T02:02:02;11.90;;;4.20;;
57249;SDS011;43102;52.014;-0.680;2023-01-09T02:03:01;8.00;;;2.90;;
57249;SDS011;43102;52.014;-0.680;2023-01-09T02:04:01;8.00;;;2.90;;
57249;SDS011;43102;52.014;-0.680;2023-01-09T02:05:01;8.00;;;2.90;;
57249;SDS011;43102;52.014;-0.680;2023-01-09T02:06:03;8.00;;;2.90;;
57249;SDS011;43102;52.014;-0.680;2023-01-09T02:07:03;8.00;;;2.90;;
57249;SDS011;43102;52.014;-0.680;2023-01-09T02:08:00;8.00;;;2.90;;
57249;SDS011;43102;52.014;-0.680;2023-01-09T02:09:04;8.00;;;2.90;;
57249;SDS011;43102;52.014;-0.680;2023-01-09T02:10:00;8.00;;;2.90;;
57249;SDS011;43102;52.014;-0.680;2023-01-09T02:11:02;8.00;;;2.90;;
57249;SDS011;43102;52.014;-0.680;2023-01-09T02:12:01;8.00;;;2.90;;
57249;SDS011;43102;52.014;-0.680;2023-01-09T02:13:01;8.00;;;2.90;;
57249;SDS011;43102;52.014;-0.680;2023-01-09T02:14:01;8.00;;;2.90;;
57249;SDS011;43102;52.014;-0.680;2023-01-09T02:17:12;8.00;;;2.90;;
57249;SDS011;43102;52.014;-0.680;2023-01-09T02:21:05;8.00;;;2.90;;
57249;SDS011;43102;52.014;-0.680;2023-01-09T02:22:09;8.00;;;2.90;;
57249;SDS011;43102;52.014;-0.680;2023-01-09T02:24:21;8.00;;;2.90;;
57249;SDS011;43102;52.014;-0.680;2023-01-09T02:27:17;8.00;;;2.90;;
57249;SDS011;43102;52.014;-0.680;2023-01-09T02:31:09;8.00;;;2.90;;
57249;SDS011;43102;52.014;-0.680;2023-01-09T02:35:15;10.70;;;3.20;;
57249;SDS011;43102;52.014;-0.680;2023-01-09T02:36:13;10.70;;;3.20;;
57249;SDS011;43102;52.014;-0.680;2023-01-09T02:37:14;10.70;;;3.20;;
57249;SDS011;43102;52.014;-0.680;2023-01-09T02:41:12;10.70;;;3.20;;
57249;SDS011;43102;52.014;-0.680;2023-01-09T02:42:07;10.70;;;3.20;;
57249;SDS011;43102;52.014;-0.680;2023-01-09T02:43:01;10.70;;;3.20;;
57249;SDS011;43102;52.014;-0.680;2023-01-09T02:44:14;10.70;;;3.20;;
57249;SDS011;43102;52.014;-0.680;2023-01-09T02:45:00;10.70;;;3.20;;
57249;SDS011;43102;52.014;-0.680;2023-01-09T02:46:00;10.70;;;3.20;;
57249;SDS011;43102;52.014;-0.680;2023-01-09T02:47:03;10.70;;;3.20;;
57249;SDS011;43102;52.014;-0.680;2023-01-09T02:48:00;10.70;;;3.20;;
57249;SDS011;43102;52.014;-0.680;2023-01-09T02:49:00;10.70;;;3.20;;
57249;SDS011;43102;52.014;-0.680;2023-01-09T02:50:04;10.70;;;3.20;;
57249;SDS011;43102;52.014;-0.680;2023-01-09T02:51:09;10.70;;;3.20;;
57249;SDS011;43102;52.014;-0.680;2023-01-09T02:52:08;10.70;;;3.20;;
57249;SDS011;43102;52.014;-0.680;2023-01-09T02:53:06;10.70;;;3.20;;
57249;SDS011;43102;52.014;-0.680;2023-01-09T02:54:07;10.70;;;3.20;;
57249;SDS011;43102;52.014;-0.680;2023-01-09T02:57:06;10.70;;;3.20;;
57249;SDS011;43102;52.014;-0.680;2023-01-09T02:59:20;10.70;;;3.20;;
57249;SDS011;43102;52.014;-0.680;2023-01-09T03:00:30;10.70;;;3.20;;
57249;SDS011;43102;52.014;-0.680;2023-01-09T03:01:06;10.70;;;3.20;;
57249;SDS011;43102;52.014;-0.680;2023-01-09T03:02:05;10.70;;;3.20;;
57249;SDS011;43102;52.014;-0.680;2023-01-09T03:03:11;10.90;;;3.30;;
57249;SDS011;43102;52.014;-0.680;2023-01-09T03:04:07;10.90;;;3.30;;
57249;SDS011;43102;52.014;-0.680;2023-01-09T03:05:16;10.90;;;3.30;;
57249;SDS011;43102;52.014;-0.680;2023-01-09T03:07:07;10.90;;;3.30;;
57249;SDS011;43102;52.014;-0.680;2023-01-09T03:08:03;10.90;;;3.30;;
57249;SDS011;43102;52.014;-0.680;2023-01-09T03:09:05;10.90;;;3.30;;
57249;SDS011;43102;52.014;-0.680;2023-01-09T03:11:04;10.90;;;3.30;;
57249;SDS011;43102;52.014;-0.680;2023-01-09T03:12:05;10.90;;;3.30;;
57249;SDS011;43102;52.014;-0.680;2023-01-09T03:13:02;10.90;;;3.30;;
57249;SDS011;43102;52.014;-0.680;2023-01-09T03:14:07;10.90;;;3.30;;
57249;SDS011;43102;52.014;-0.680;2023-01-09T03:15:04;10.90;;;3.30;;
57249;SDS011;43102;52.014;-0.680;2023-01-09T03:16:04;10.90;;;3.30;;
57249;SDS011;43102;52.014;-0.680;2023-01-09T03:17:04;10.90;;;3.30;;
57249;SDS011;43102;52.014;-0.680;2023-01-09T03:18:03;10.90;;;3.30;;
57249;SDS011;43102;52.014;-0.680;2023-01-09T03:19:04;10.90;;;3.30;;
57249;SDS011;43102;52.014;-0.680;2023-01-09T03:20:03;10.90;;;3.30;;
57249;SDS011;43102;52.014;-0.680;2023-01-09T03:21:01;10.90;;;3.30;;
57249;SDS011;43102;52.014;-0.680;2023-01-09T03:22:01;10.90;;;3.30;;
57249;SDS011;43102;52.014;-0.680;2023-01-09T03:23:02;10.90;;;3.30;;
57249;SDS011;43102;52.014;-0.680;2023-01-09T03:24:01;10.90;;;3.30;;
57249;SDS011;43102;52.014;-0.680;2023-01-09T03:25:01;10.90;;;3.30;;
57249;SDS011;43102;52.014;-0.680;2023-01-09T03:26:00;10.90;;;3.30;;
57249;SDS011;43102;52.014;-0.680;2023-01-09T03:27:01;10.90;;;3.30;;
57249;SDS011;43102;52.014;-0.680;2023-01-09T03:28:02;10.90;;;3.30;;
57249;SDS011;43102;52.014;-0.680;2023-01-09T03:29:01;10.90;;;3.30;;
57249;SDS011;43102;52.014;-0.680;2023-01-09T03:30:00;10.90;;;3.30;;
57249;SDS011;43102;52.014;-0.680;2023-01-09T03:31:00;10.90;;;3.30;;
57249;SDS011;43102;52.014;-0.680;2023-01-09T03:32:01;10.90;;;3.30;;
57249;SDS011;43102;52.014;-0.680;2023-01-09T03:33:01;5.50;;;2.40;;
57249;SDS011;43102;52.014;-0.680;2023-01-09T03:34:00;5.50;;;2.40;;
57249;SDS011;43102;52.014;-0.680;2023-01-09T03:35:01;5.50;;;2.40;;
57249;SDS011;43102;52.014;-0.680;2023-01-09T03:36:00;5.50;;;2.40;;
57249;SDS011;43102;52.014;-0.680;2023-01-09T03:37:00;5.50;;;2.40;;
57249;SDS011;43102;52.014;-0.680;2023-01-09T03:38:00;5.50;;;2.40;;
57249;SDS011;43102;52.014;-0.680;2023-01-09T03:39:00;5.50;;;2.40;;
57249;SDS011;43102;52.014;-0.680;2023-01-09T03:40:00;5.50;;;2.40;;
57249;SDS011;43102;52.014;-0.680;2023-01-09T03:41:00;5.50;;;2.40;;
57249;SDS011;43102;52.014;-0.680;2023-01-09T03:42:00;5.50;;;2.40;;
57249;SDS011;43102;52.014;-0.680;2023-01-09T03:43:00;5.50;;;2.40;;
57249;SDS011;43102;52.014;-0.680;2023-01-09T03:44:00;5.50;;;2.40;;
57249;SDS011;43102;52.014;-0.680;2023-01-09T03:45:01;5.50;;;2.40;;
57249;SDS011;43102;52.014;-0.680;2023-01-09T03:46:01;5.50;;;2.40;;
57249;SDS011;43102;52.014;-0.680;2023-01-09T03:47:00;5.50;;;2.40;;
57249;SDS011;43102;52.014;-0.680;2023-01-09T03:48:00;5.50;;;2.40;;
57249;SDS011;43102;52.014;-0.680;2023-01-09T03:49:00;5.50;;;2.40;;
57249;SDS011;43102;52.014;-0.680;2023-01-09T03:50:00;5.50;;;2.40;;
57249;SDS011;43102;52.014;-0.680;2023-01-09T03:51:00;5.50;;;2.40;;
57249;SDS011;43102;52.014;-0.680;2023-01-09T03:52:00;5.50;;;2.40;;
57249;SDS011;43102;52.014;-0.680;2023-01-09T03:53:00;5.50;;;2.40;;
57249;SDS011;43102;52.014;-0.680;2023-01-09T03:54:00;5.50;;;2.40;;
57249;SDS011;43102;52.014;-0.680;2023-01-09T03:55:00;5.50;;;2.40;;
57249;SDS011;43102;52.014;-0.680;2023-01-09T03:56:00;5.50;;;2.40;;
57249;SDS011;43102;52.014;-0.680;2023-01-09T03:57:00;5.50;;;2.40;;
57249;SDS011;43102;52.014;-0.680;2023-01-09T03:58:00;5.50;;;2.40;;
57249;SDS011;43102;52.014;-0.680;2023-01-09T03:59:00;5.50;;;2.40;;
57249;SDS011;43102;52.014;-0.680;2023-01-09T04:00:00;5.50;;;2.40;;
57249;SDS011;43102;52.014;-0.680;2023-01-09T04:01:02;5.50;;;2.40;;
57249;SDS011;43102;52.014;-0.680;2023-01-09T04:02:04;5.50;;;2.40;;
57249;SDS011;43102;52.014;-0.680;2023-01-09T04:03:00;3.90;;;2.10;;
57249;SDS011;43102;52.014;-0.680;2023-01-09T04:04:00;3.90;;;2.10;;
57249;SDS011;43102;52.014;-0.680;2023-01-09T04:05:00;3.90;;;2.10;;
57249;SDS011;43102;52.014;-0.680;2023-01-09T04:06:00;3.90;;;2.10;;
57249;SDS011;43102;52.014;-0.680;2023-01-09T04:07:00;3.90;;;2.10;;
57249;SDS011;43102;52.014;-0.680;2023-01-09T04:08:01;3.90;;;2.10;;
57249;SDS011;43102;52.014;-0.680;2023-01-09T04:09:00;3.90;;;2.10;;
57249;SDS011;43102;52.014;-0.680;2023-01-09T04:10:00;3.90;;;2.10;;
57249;SDS011;43102;52.014;-0.680;2023-01-09T04:11:00;3.90;;;2.10;;
57249;SDS011;43102;52.014;-0.680;2023-01-09T04:12:00;3.90;;;2.10;;
57249;SDS011;43102;52.014;-0.680;2023-01-09T04:13:00;3.90;;;2.10;;
57249;SDS011;43102;52.014;-0.680;2023-01-09T04:14:00;3.90;;;2.10;;
57249;SDS011;43102;52.014;-0.680;2023-01-09T04:15:00;3.90;;;2.10;;
57249;SDS011;43102;52.014;-0.680;2023-01-09T04:16:00;3.90;;;2.10;;
57249;SDS011;43102;52.014;-0.680;2023-01-09T04:17:00;3.90;;;2.10;;
57249;SDS011;43102;52.014;-0.680;2023-01-09T04:18:02;3.90;;;2.10;;
57249;SDS011;43102;52.014;-0.680;2023-01-09T04:19:00;3.90;;;2.10;;
57249;SDS011;43102;52.014;-0.680;2023-01-09T04:20:00;3.90;;;2.10;;
57249;SDS011;43102;52.014;-0.680;2023-01-09T04:21:00;3.90;;;2.10;;
57249;SDS011;43102;52.014;-0.680;2023-01-09T04:22:00;3.90;;;2.10;;
57249;SDS011;43102;52.014;-0.680;2023-01-09T04:23:01;3.90;;;2.10;;
57249;SDS011;43102;52.014;-0.680;2023-01-09T04:24:01;3.90;;;2.10;;
57249;SDS011;43102;52.014;-0.680;2023-01-09T04:25:01;3.90;;;2.10;;
57249;SDS011;43102;52.014;-0.680;2023-01-09T04:26:00;3.90;;;2.10;;
57249;SDS011;43102;52.014;-0.680;2023-01-09T04:27:00;3.90;;;2.10;;
57249;SDS011;43102;52.014;-0.680;2023-01-09T04:28:00;3.90;;;2.10;;
57249;SDS011;43102;52.014;-0.680;2023-01-09T04:29:00;3.90;;;2.10;;
57249;SDS011;43102;52.014;-0.680;2023-01-09T04:30:00;3.90;;;2.10;;
57249;SDS011;43102;52.014;-0.680;2023-01-09T04:31:01;3.90;;;2.10;;
57249;SDS011;43102;52.014;-0.680;2023-01-09T04:32:00;3.90;;;2.10;;
57249;SDS011;43102;52.014;-0.680;2023-01-09T04:33:00;2.60;;;1.80;;
57249;SDS011;43102;52.014;-0.680;2023-01-09T04:34:00;2.60;;;1.80;;
57249;SDS011;43102;52.014;-0.680;2023-01-09T04:35:00;2.60;;;1.80;;
57249;SDS011;43102;52.014;-0.680;2023-01-09T04:36:00;2.60;;;1.80;;
57249;SDS011;43102;52.014;-0.680;2023-01-09T04:37:00;2.60;;;1.80;;
57249;SDS011;43102;52.014;-0.680;2023-01-09T04:38:00;2.60;;;1.80;;
57249;SDS011;43102;52.014;-0.680;2023-01-09T04:39:01;2.60;;;1.80;;
57249;SDS011;43102;52.014;-0.680;2023-01-09T04:40:03;2.60;;;1.80;;
57249;SDS011;43102;52.014;-0.680;2023-01-09T04:41:00;2.60;;;1.80;;
57249;SDS011;43102;52.014;-0.680;2023-01-09T04:42:00;2.60;;;1.80;;
57249;SDS011;43102;52.014;-0.680;2023-01-09T04:43:00;2.60;;;1.80;;
57249;SDS011;43102;52.014;-0.680;2023-01-09T04:44:00;2.60;;;1.80;;
57249;SDS011;43102;52.014;-0.680;2023-01-09T04:45:00;2.60;;;1.80;;
57249;SDS011;43102;52.014;-0.680;2023-01-09T04:46:01;2.60;;;1.80;;
57249;SDS011;43102;52.014;-0.680;2023-01-09T04:47:00;2.60;;;1.80;;
57249;SDS011;43102;52.014;-0.680;2023-01-09T04:48:00;2.60;;;1.80;;
57249;SDS011;43102;52.014;-0.680;2023-01-09T04:49:00;2.60;;;1.80;;
57249;SDS011;43102;52.014;-0.680;2023-01-09T04:50:00;2.60;;;1.80;;
57249;SDS011;43102;52.014;-0.680;2023-01-09T04:51:00;2.60;;;1.80;;
57249;SDS011;43102;52.014;-0.680;2023-01-09T04:52:00;2.60;;;1.80;;
57249;SDS011;43102;52.014;-0.680;2023-01-09T04:53:00;2.60;;;1.80;;
57249;SDS011;43102;52.014;-0.680;2023-01-09T04:54:00;2.60;;;1.80;;
57249;SDS011;43102;52.014;-0.680;2023-01-09T04:55:00;2.60;;;1.80;;
57249;SDS011;43102;52.014;-0.680;2023-01-09T04:56:01;2.60;;;1.80;;
57249;SDS011;43102;52.014;-0.680;2023-01-09T04:57:00;2.60;;;1.80;;
57249;SDS011;43102;52.014;-0.680;2023-01-09T04:58:00;2.60;;;1.80;;
57249;SDS011;43102;52.014;-0.680;2023-01-09T04:59:00;2.60;;;1.80;;
57249;SDS011;43102;52.014;-0.680;2023-01-09T05:00:02;2.60;;;1.80;;
57249;SDS011;43102;52.014;-0.680;2023-01-09T05:01:01;2.60;;;1.80;;
57249;SDS011;43102;52.014;-0.680;2023-01-09T05:02:01;2.60;;;1.80;;
57249;SDS011;43102;52.014;-0.680;2023-01-09T05:03:01;3.30;;;2.50;;
57249;SDS011;43102;52.014;-0.680;2023-01-09T05:04:01;3.30;;;2.50;;
57249;SDS011;43102;52.014;-0.680;2023-01-09T05:05:00;3.30;;;2.50;;
57249;SDS011;43102;52.014;-0.680;2023-01-09T05:06:00;3.30;;;2.50;;
57249;SDS011;43102;52.014;-0.680;2023-01-09T05:07:01;3.30;;;2.50;;
57249;SDS011;43102;52.014;-0.680;2023-01-09T05:08:00;3.30;;;2.50;;
57249;SDS011;43102;52.014;-0.680;2023-01-09T05:09:00;3.30;;;2.50;;
57249;SDS011;43102;52.014;-0.680;2023-01-09T05:10:02;3.30;;;2.50;;
57249;SDS011;43102;52.014;-0.680;2023-01-09T05:11:00;3.30;;;2.50;;
57249;SDS011;43102;52.014;-0.680;2023-01-09T05:12:02;3.30;;;2.50;;
57249;SDS011;43102;52.014;-0.680;2023-01-09T05:13:01;3.30;;;2.50;;
57249;SDS011;43102;52.014;-0.680;2023-01-09T05:14:00;3.30;;;2.50;;
57249;SDS011;43102;52.014;-0.680;2023-01-09T05:15:01;3.30;;;2.50;;
57249;SDS011;43102;52.014;-0.680;2023-01-09T05:16:00;3.30;;;2.50;;
57249;SDS011;43102;52.014;-0.680;2023-01-09T05:17:00;3.30;;;2.50;;
57249;SDS011;43102;52.014;-0.680;2023-01-09T05:18:00;3.30;;;2.50;;
57249;SDS011;43102;52.014;-0.680;2023-01-09T05:19:00;3.30;;;2.50;;
57249;SDS011;43102;52.014;-0.680;2023-01-09T05:20:00;3.30;;;2.50;;
57249;SDS011;43102;52.014;-0.680;2023-01-09T05:21:00;3.30;;;2.50;;
57249;SDS011;43102;52.014;-0.680;2023-01-09T05:22:00;3.30;;;2.50;;
57249;SDS011;43102;52.014;-0.680;2023-01-09T05:23:00;3.30;;;2.50;;
57249;SDS011;43102;52.014;-0.680;2023-01-09T05:24:00;3.30;;;2.50;;
57249;SDS011;43102;52.014;-0.680;2023-01-09T05:25:01;3.30;;;2.50;;
57249;SDS011;43102;52.014;-0.680;2023-01-09T05:26:00;3.30;;;2.50;;
57249;SDS011;43102;52.014;-0.680;2023-01-09T05:27:01;3.30;;;2.50;;
57249;SDS011;43102;52.014;-0.680;2023-01-09T05:28:00;3.30;;;2.50;;
57249;SDS011;43102;52.014;-0.680;2023-01-09T05:29:00;3.30;;;2.50;;
57249;SDS011;43102;52.014;-0.680;2023-01-09T05:30:00;3.30;;;2.50;;
57249;SDS011;43102;52.014;-0.680;2023-01-09T05:31:00;3.30;;;2.50;;
57249;SDS011;43102;52.014;-0.680;2023-01-09T05:32:00;3.30;;;2.50;;
57249;SDS011;43102;52.014;-0.680;2023-01-09T05:33:00;3.30;;;2.50;;
57249;SDS011;43102;52.014;-0.680;2023-01-09T05:34:00;6.50;;;2.60;;
57249;SDS011;43102;52.014;-0.680;2023-01-09T05:35:00;6.50;;;2.60;;
57249;SDS011;43102;52.014;-0.680;2023-01-09T05:36:00;6.50;;;2.60;;
57249;SDS011;43102;52.014;-0.680;2023-01-09T05:37:00;6.50;;;2.60;;
57249;SDS011;43102;52.014;-0.680;2023-01-09T05:38:00;6.50;;;2.60;;
57249;SDS011;43102;52.014;-0.680;2023-01-09T05:39:02;6.50;;;2.60;;
57249;SDS011;43102;52.014;-0.680;2023-01-09T05:40:00;6.50;;;2.60;;
57249;SDS011;43102;52.014;-0.680;2023-01-09T05:41:00;6.50;;;2.60;;
57249;SDS011;43102;52.014;-0.680;2023-01-09T05:42:00;6.50;;;2.60;;
57249;SDS011;43102;52.014;-0.680;2023-01-09T05:43:00;6.50;;;2.60;;
57249;SDS011;43102;52.014;-0.680;2023-01-09T05:44:00;6.50;;;2.60;;
57249;SDS011;43102;52.014;-0.680;2023-01-09T05:45:00;6.50;;;2.60;;
57249;SDS011;43102;52.014;-0.680;2023-01-09T05:46:00;6.50;;;2.60;;
57249;SDS011;43102;52.014;-0.680;2023-01-09T05:47:03;6.50;;;2.60;;
57249;SDS011;43102;52.014;-0.680;2023-01-09T05:48:00;6.50;;;2.60;;
57249;SDS011;43102;52.014;-0.680;2023-01-09T05:49:00;6.50;;;2.60;;
57249;SDS011;43102;52.014;-0.680;2023-01-09T05:50:01;6.50;;;2.60;;
57249;SDS011;43102;52.014;-0.680;2023-01-09T05:51:00;6.50;;;2.60;;
57249;SDS011;43102;52.014;-0.680;2023-01-09T05:52:00;6.50;;;2.60;;
57249;SDS011;43102;52.014;-0.680;2023-01-09T05:53:00;6.50;;;2.60;;
57249;SDS011;43102;52.014;-0.680;2023-01-09T05:54:01;6.50;;;2.60;;
57249;SDS011;43102;52.014;-0.680;2023-01-09T05:55:00;6.50;;;2.60;;
57249;SDS011;43102;52.014;-0.680;2023-01-09T05:56:00;6.50;;;2.60;;
57249;SDS011;43102;52.014;-0.680;2023-01-09T05:57:00;6.50;;;2.60;;
57249;SDS011;43102;52.014;-0.680;2023-01-09T05:58:00;6.50;;;2.60;;
57249;SDS011;43102;52.014;-0.680;2023-01-09T05:59:00;6.50;;;2.60;;
57249;SDS011;43102;52.014;-0.680;2023-01-09T06:00:00;6.50;;;2.60;;
57249;SDS011;43102;52.014;-0.680;2023-01-09T06:01:00;6.50;;;2.60;;
57249;SDS011;43102;52.014;-0.680;2023-01-09T06:02:00;6.50;;;2.60;;
57249;SDS011;43102;52.014;-0.680;2023-01-09T06:03:01;6.50;;;2.60;;
57249;SDS011;43102;52.014;-0.680;2023-01-09T06:04:00;8.60;;;2.60;;
57249;SDS011;43102;52.014;-0.680;2023-01-09T06:05:00;8.60;;;2.60;;
57249;SDS011;43102;52.014;-0.680;2023-01-09T06:06:00;8.60;;;2.60;;
57249;SDS011;43102;52.014;-0.680;2023-01-09T06:07:00;8.60;;;2.60;;
57249;SDS011;43102;52.014;-0.680;2023-01-09T06:08:00;8.60;;;2.60;;
57249;SDS011;43102;52.014;-0.680;2023-01-09T06:09:02;8.60;;;2.60;;
57249;SDS011;43102;52.014;-0.680;2023-01-09T06:10:00;8.60;;;2.60;;
57249;SDS011;43102;52.014;-0.680;2023-01-09T06:11:00;8.60;;;2.60;;
57249;SDS011;43102;52.014;-0.680;2023-01-09T06:12:00;8.60;;;2.60;;
57249;SDS011;43102;52.014;-0.680;2023-01-09T06:13:01;8.60;;;2.60;;
57249;SDS011;43102;52.014;-0.680;2023-01-09T06:14:01;8.60;;;2.60;;
57249;SDS011;43102;52.014;-0.680;2023-01-09T06:15:00;8.60;;;2.60;;
57249;SDS011;43102;52.014;-0.680;2023-01-09T06:16:00;8.60;;;2.60;;
57249;SDS011;43102;52.014;-0.680;2023-01-09T06:17:00;8.60;;;2.60;;
57249;SDS011;43102;52.014;-0.680;2023-01-09T06:18:00;8.60;;;2.60;;
57249;SDS011;43102;52.014;-0.680;2023-01-09T06:19:00;8.60;;;2.60;;